sensor_id;sensor_type;location;lat;lon;timestamp;temperature;humidity
68648;SHT31;55632;51.962;16.116;2023-01-30T00:03:33;0.95;82.69
68648;SHT31;55632;51.962;16.116;2023-01-30T00:08:34;0.98;82.62
68648;SHT31;55632;51.962;16.116;2023-01-30T00:13:36;0.97;82.37
68648;SHT31;55632;51.962;16.116;2023-01-30T00:18:38;0.98;82.00
68648;SHT31;55632;51.962;16.116;2023-01-30T00:23:39;0.95;81.85
68648;SHT31;55632;51.962;16.116;2023-01-30T00:28:40;0.98;81.93
68648;SHT31;55632;51.962;16.116;2023-01-30T00:33:41;0.97;81.75
68648;SHT31;55632;51.962;16.116;2023-01-30T00:38:42;0.94;81.50
68648;SHT31;55632;51.962;16.116;2023-01-30T00:43:42;0.94;81.41
68648;SHT31;55632;51.962;16.116;2023-01-30T00:49:02;0.95;81.27
68648;SHT31;55632;51.962;16.116;2023-01-30T00:54:05;0.91;81.33
68648;SHT31;55632;51.962;16.116;2023-01-30T00:59:06;0.91;81.00
68648;SHT31;55632;51.962;16.116;2023-01-30T01:04:07;0.90;81.11
68648;SHT31;55632;51.962;16.116;2023-01-30T01:09:10;0.90;80.99
68648;SHT31;55632;51.962;16.116;2023-01-30T01:14:10;0.87;81.05
68648;SHT31;55632;51.962;16.116;2023-01-30T01:19:11;0.90;80.74
68648;SHT31;55632;51.962;16.116;2023-01-30T01:24:14;0.88;80.48
68648;SHT31;55632;51.962;16.116;2023-01-30T01:29:16;0.87;80.39
68648;SHT31;55632;51.962;16.116;2023-01-30T01:34:17;0.87;80.29
68648;SHT31;55632;51.962;16.116;2023-01-30T01:39:18;0.84;80.22
68648;SHT31;55632;51.962;16.116;2023-01-30T01:44:18;0.85;80.14
68648;SHT31;55632;51.962;16.116;2023-01-30T01:49:34;0.83;80.13
68648;SHT31;55632;51.962;16.116;2023-01-30T01:54:58;0.83;80.01
68648;SHT31;55632;51.962;16.116;2023-01-30T02:00:16;0.81;79.69
68648;SHT31;55632;51.962;16.116;2023-01-30T02:05:18;0.81;79.95
68648;SHT31;55632;51.962;16.116;2023-01-30T02:10:22;0.79;79.95
68648;SHT31;55632;51.962;16.116;2023-01-30T02:15:24;0.77;79.84
68648;SHT31;55632;51.962;16.116;2023-01-30T02:41:47;0.74;79.48
68648;SHT31;55632;51.962;16.116;2023-01-30T02:52:05;0.72;79.71
68648;SHT31;55632;51.962;16.116;2023-01-30T02:57:20;0.67;79.78
68648;SHT31;55632;51.962;16.116;2023-01-30T03:07:41;0.67;80.02
68648;SHT31;55632;51.962;16.116;2023-01-30T03:17:51;0.69;79.83
68648;SHT31;55632;51.962;16.116;2023-01-30T03:22:53;0.69;79.75
68648;SHT31;55632;51.962;16.116;2023-01-30T03:27:55;0.69;79.73
68648;SHT31;55632;51.962;16.116;2023-01-30T03:32:57;0.69;79.61
68648;SHT31;55632;51.962;16.116;2023-01-30T03:37:59;0.70;79.75
68648;SHT31;55632;51.962;16.116;2023-01-30T03:42:59;0.70;79.70
68648;SHT31;55632;51.962;16.116;2023-01-30T03:48:01;0.72;79.56
68648;SHT31;55632;51.962;16.116;2023-01-30T03:53:04;0.73;79.55
68648;SHT31;55632;51.962;16.116;2023-01-30T03:58:05;0.76;79.35
68648;SHT31;55632;51.962;16.116;2023-01-30T04:03:07;0.77;79.27
68648;SHT31;55632;51.962;16.116;2023-01-30T04:08:08;0.76;79.21
68648;SHT31;55632;51.962;16.116;2023-01-30T04:13:10;0.80;78.85
68648;SHT31;55632;51.962;16.116;2023-01-30T04:18:11;0.83;78.77
68648;SHT31;55632;51.962;16.116;2023-01-30T04:23:22;0.83;78.63
68648;SHT31;55632;51.962;16.116;2023-01-30T04:28:24;0.88;78.73
68648;SHT31;55632;51.962;16.116;2023-01-30T04:33:26;0.88;78.77
68648;SHT31;55632;51.962;16.116;2023-01-30T04:38:29;0.88;78.84
68648;SHT31;55632;51.962;16.116;2023-01-30T04:43:31;0.94;78.84
68648;SHT31;55632;51.962;16.116;2023-01-30T04:48:58;0.91;79.16
68648;SHT31;55632;51.962;16.116;2023-01-30T04:53:59;0.92;79.56
68648;SHT31;55632;51.962;16.116;2023-01-30T04:59:00;0.91;79.85
68648;SHT31;55632;51.962;16.116;2023-01-30T05:04:06;0.91;80.34
68648;SHT31;55632;51.962;16.116;2023-01-30T05:09:08;0.88;80.85
68648;SHT31;55632;51.962;16.116;2023-01-30T05:14:09;0.85;81.54
68648;SHT31;55632;51.962;16.116;2023-01-30T05:19:11;0.83;81.96
68648;SHT31;55632;51.962;16.116;2023-01-30T05:24:12;0.80;82.53
68648;SHT31;55632;51.962;16.116;2023-01-30T05:29:13;0.80;83.08
68648;SHT31;55632;51.962;16.116;2023-01-30T05:34:14;0.76;83.52
68648;SHT31;55632;51.962;16.116;2023-01-30T05:39:15;0.80;84.05
68648;SHT31;55632;51.962;16.116;2023-01-30T05:44:16;0.81;84.59
68648;SHT31;55632;51.962;16.116;2023-01-30T05:49:17;0.80;84.86
68648;SHT31;55632;51.962;16.116;2023-01-30T05:54:17;0.81;85.11
68648;SHT31;55632;51.962;16.116;2023-01-30T05:59:18;0.83;85.45
68648;SHT31;55632;51.962;16.116;2023-01-30T06:04:19;0.85;85.86
68648;SHT31;55632;51.962;16.116;2023-01-30T06:09:20;0.88;86.25
68648;SHT31;55632;51.962;16.116;2023-01-30T06:14:21;0.94;86.45
68648;SHT31;55632;51.962;16.116;2023-01-30T06:19:21;0.98;86.65
68648;SHT31;55632;51.962;16.116;2023-01-30T06:24:22;0.99;86.81
68648;SHT31;55632;51.962;16.116;2023-01-30T06:29:23;1.05;86.99
68648;SHT31;55632;51.962;16.116;2023-01-30T06:34:24;1.12;87.12
68648;SHT31;55632;51.962;16.116;2023-01-30T06:39:25;1.14;87.15
68648;SHT31;55632;51.962;16.116;2023-01-30T06:44:25;1.18;87.22
68648;SHT31;55632;51.962;16.116;2023-01-30T06:49:26;1.18;87.33
68648;SHT31;55632;51.962;16.116;2023-01-30T06:54:27;1.26;87.47
68648;SHT31;55632;51.962;16.116;2023-01-30T06:59:28;1.29;87.52
68648;SHT31;55632;51.962;16.116;2023-01-30T07:04:28;1.36;87.60
68648;SHT31;55632;51.962;16.116;2023-01-30T07:09:29;1.42;87.64
68648;SHT31;55632;51.962;16.116;2023-01-30T07:14:30;1.44;87.73
68648;SHT31;55632;51.962;16.116;2023-01-30T07:19:31;1.46;87.85
68648;SHT31;55632;51.962;16.116;2023-01-30T07:24:31;1.44;88.00
68648;SHT31;55632;51.962;16.116;2023-01-30T07:29:34;1.42;88.23
68648;SHT31;55632;51.962;16.116;2023-01-30T07:34:35;1.35;88.46
68648;SHT31;55632;51.962;16.116;2023-01-30T07:39:36;1.38;88.70
68648;SHT31;55632;51.962;16.116;2023-01-30T07:44:37;1.33;89.11
68648;SHT31;55632;51.962;16.116;2023-01-30T07:49:38;1.39;89.22
68648;SHT31;55632;51.962;16.116;2023-01-30T07:54:39;1.38;89.48
68648;SHT31;55632;51.962;16.116;2023-01-30T07:59:40;1.40;89.64
68648;SHT31;55632;51.962;16.116;2023-01-30T08:04:42;1.47;89.79
68648;SHT31;55632;51.962;16.116;2023-01-30T08:09:43;1.50;90.03
68648;SHT31;55632;51.962;16.116;2023-01-30T08:14:43;1.54;90.09
68648;SHT31;55632;51.962;16.116;2023-01-30T08:19:44;1.57;90.20
68648;SHT31;55632;51.962;16.116;2023-01-30T08:24:45;1.60;90.36
68648;SHT31;55632;51.962;16.116;2023-01-30T08:29:46;1.67;90.42
68648;SHT31;55632;51.962;16.116;2023-01-30T08:34:46;1.71;90.51
68648;SHT31;55632;51.962;16.116;2023-01-30T08:39:47;1.73;90.60
68648;SHT31;55632;51.962;16.116;2023-01-30T08:44:48;1.75;90.74
68648;SHT31;55632;51.962;16.116;2023-01-30T08:49:49;1.81;90.84
68648;SHT31;55632;51.962;16.116;2023-01-30T08:54:53;1.81;90.71
68648;SHT31;55632;51.962;16.116;2023-01-30T08:59:53;1.82;90.87
68648;SHT31;55632;51.962;16.116;2023-01-30T09:04:54;1.85;90.96
68648;SHT31;55632;51.962;16.116;2023-01-30T09:09:55;1.87;90.95
68648;SHT31;55632;51.962;16.116;2023-01-30T09:14:55;1.93;91.11
68648;SHT31;55632;51.962;16.116;2023-01-30T09:19:58;1.97;91.15
68648;SHT31;55632;51.962;16.116;2023-01-30T09:24:58;2.02;91.26
68648;SHT31;55632;51.962;16.116;2023-01-30T09:29:59;2.08;91.37
68648;SHT31;55632;51.962;16.116;2023-01-30T09:35:00;2.13;91.32
68648;SHT31;55632;51.962;16.116;2023-01-30T09:40:01;2.19;91.30
68648;SHT31;55632;51.962;16.116;2023-01-30T09:45:21;2.25;91.35
68648;SHT31;55632;51.962;16.116;2023-01-30T09:55:50;2.39;91.40
68648;SHT31;55632;51.962;16.116;2023-01-30T10:00:54;2.44;91.61
68648;SHT31;55632;51.962;16.116;2023-01-30T10:06:04;2.54;91.62
68648;SHT31;55632;51.962;16.116;2023-01-30T10:21:36;2.70;91.43
68648;SHT31;55632;51.962;16.116;2023-01-30T10:26:41;2.74;91.49
68648;SHT31;55632;51.962;16.116;2023-01-30T10:31:49;2.77;91.60
68648;SHT31;55632;51.962;16.116;2023-01-30T10:37:12;2.84;91.77
68648;SHT31;55632;51.962;16.116;2023-01-30T10:42:21;2.91;91.66
68648;SHT31;55632;51.962;16.116;2023-01-30T10:52:49;3.09;91.82
68648;SHT31;55632;51.962;16.116;2023-01-30T11:08:29;3.34;91.70
68648;SHT31;55632;51.962;16.116;2023-01-30T11:13:31;3.43;91.55
68648;SHT31;55632;51.962;16.116;2023-01-30T11:18:43;3.57;91.76
68648;SHT31;55632;51.962;16.116;2023-01-30T11:23:45;3.68;91.51
68648;SHT31;55632;51.962;16.116;2023-01-30T11:28:46;3.71;91.28
68648;SHT31;55632;51.962;16.116;2023-01-30T11:33:59;3.79;91.18
68648;SHT31;55632;51.962;16.116;2023-01-30T11:39:04;3.86;91.12
68648;SHT31;55632;51.962;16.116;2023-01-30T11:44:34;3.86;90.94
68648;SHT31;55632;51.962;16.116;2023-01-30T11:49:39;3.92;90.70
68648;SHT31;55632;51.962;16.116;2023-01-30T11:54:42;3.92;90.74
68648;SHT31;55632;51.962;16.116;2023-01-30T11:59:56;3.96;90.54
68648;SHT31;55632;51.962;16.116;2023-01-30T12:05:04;3.97;90.49
68648;SHT31;55632;51.962;16.116;2023-01-30T12:15:33;4.05;90.50
68648;SHT31;55632;51.962;16.116;2023-01-30T12:36:27;4.13;90.46
68648;SHT31;55632;51.962;16.116;2023-01-30T12:41:39;4.17;90.58
68648;SHT31;55632;51.962;16.116;2023-01-30T12:46:54;4.25;90.65
68648;SHT31;55632;51.962;16.116;2023-01-30T12:57:59;4.52;90.75
68648;SHT31;55632;51.962;16.116;2023-01-30T13:08:32;4.82;90.28
68648;SHT31;55632;51.962;16.116;2023-01-30T13:13:49;4.90;90.12
68648;SHT31;55632;51.962;16.116;2023-01-30T13:24:23;5.03;89.51
68648;SHT31;55632;51.962;16.116;2023-01-30T13:29:36;5.10;89.13
68648;SHT31;55632;51.962;16.116;2023-01-30T13:34:43;5.17;89.04
68648;SHT31;55632;51.962;16.116;2023-01-30T13:39:55;5.20;88.54
68648;SHT31;55632;51.962;16.116;2023-01-30T13:44:58;5.14;87.89
68648;SHT31;55632;51.962;16.116;2023-01-30T14:00:55;4.90;87.72
68648;SHT31;55632;51.962;16.116;2023-01-30T14:11:02;4.82;87.90
68648;SHT31;55632;51.962;16.116;2023-01-30T14:16:04;4.79;87.97
68648;SHT31;55632;51.962;16.116;2023-01-30T14:21:21;4.75;88.12
68648;SHT31;55632;51.962;16.116;2023-01-30T14:31:48;4.75;88.25
68648;SHT31;55632;51.962;16.116;2023-01-30T14:36:50;4.73;88.26
68648;SHT31;55632;51.962;16.116;2023-01-30T14:42:30;4.68;88.39
68648;SHT31;55632;51.962;16.116;2023-01-30T14:47:32;4.66;88.42
68648;SHT31;55632;51.962;16.116;2023-01-30T14:52:37;4.58;88.62
68648;SHT31;55632;51.962;16.116;2023-01-30T14:57:39;4.58;88.80
68648;SHT31;55632;51.962;16.116;2023-01-30T15:02:55;4.58;88.88
68648;SHT31;55632;51.962;16.116;2023-01-30T15:08:05;4.59;89.01
68648;SHT31;55632;51.962;16.116;2023-01-30T15:23:48;4.48;89.11
68648;SHT31;55632;51.962;16.116;2023-01-30T15:34:19;4.36;89.25
68648;SHT31;55632;51.962;16.116;2023-01-30T15:39:23;4.30;89.28
68648;SHT31;55632;51.962;16.116;2023-01-30T15:44:48;4.27;89.41
68648;SHT31;55632;51.962;16.116;2023-01-30T15:50:06;4.25;89.46
68648;SHT31;55632;51.962;16.116;2023-01-30T15:55:15;4.24;89.48
68648;SHT31;55632;51.962;16.116;2023-01-30T16:00:30;4.25;89.50
68648;SHT31;55632;51.962;16.116;2023-01-30T16:05:32;4.27;89.51
68648;SHT31;55632;51.962;16.116;2023-01-30T16:10:33;4.29;89.43
68648;SHT31;55632;51.962;16.116;2023-01-30T16:15:50;4.31;89.44
68648;SHT31;55632;51.962;16.116;2023-01-30T16:21:03;4.33;89.48
68648;SHT31;55632;51.962;16.116;2023-01-30T16:26:08;4.33;89.47
68648;SHT31;55632;51.962;16.116;2023-01-30T16:31:14;4.30;89.46
68648;SHT31;55632;51.962;16.116;2023-01-30T16:41:38;4.27;89.46
68648;SHT31;55632;51.962;16.116;2023-01-30T16:57:02;4.18;89.67
68648;SHT31;55632;51.962;16.116;2023-01-30T17:02:05;4.18;89.63
68648;SHT31;55632;51.962;16.116;2023-01-30T17:07:18;4.21;89.73
68648;SHT31;55632;51.962;16.116;2023-01-30T17:17:30;4.16;89.84
68648;SHT31;55632;51.962;16.116;2023-01-30T17:22:31;4.11;90.02
68648;SHT31;55632;51.962;16.116;2023-01-30T17:27:33;4.14;90.03
68648;SHT31;55632;51.962;16.116;2023-01-30T17:32:34;4.11;90.17
68648;SHT31;55632;51.962;16.116;2023-01-30T17:37:34;4.09;90.23
68648;SHT31;55632;51.962;16.116;2023-01-30T17:42:35;4.09;90.26
68648;SHT31;55632;51.962;16.116;2023-01-30T17:47:36;4.05;90.27
68648;SHT31;55632;51.962;16.116;2023-01-30T17:52:37;4.09;90.27
68648;SHT31;55632;51.962;16.116;2023-01-30T17:57:38;4.09;90.29
68648;SHT31;55632;51.962;16.116;2023-01-30T18:02:41;4.09;90.28
68648;SHT31;55632;51.962;16.116;2023-01-30T18:07:42;4.06;90.19
68648;SHT31;55632;51.962;16.116;2023-01-30T18:12:43;4.07;90.09
68648;SHT31;55632;51.962;16.116;2023-01-30T18:17:48;4.09;90.11
68648;SHT31;55632;51.962;16.116;2023-01-30T18:22:49;4.05;90.06
68648;SHT31;55632;51.962;16.116;2023-01-30T18:27:50;4.02;89.95
68648;SHT31;55632;51.962;16.116;2023-01-30T18:32:50;4.06;89.77
68648;SHT31;55632;51.962;16.116;2023-01-30T18:37:51;4.03;89.65
68648;SHT31;55632;51.962;16.116;2023-01-30T18:42:52;4.03;89.38
68648;SHT31;55632;51.962;16.116;2023-01-30T18:47:53;4.02;89.41
68648;SHT31;55632;51.962;16.116;2023-01-30T18:52:54;3.97;89.37
68648;SHT31;55632;51.962;16.116;2023-01-30T18:57:57;3.99;89.37
68648;SHT31;55632;51.962;16.116;2023-01-30T19:02:58;3.96;89.37
68648;SHT31;55632;51.962;16.116;2023-01-30T19:08:02;3.92;89.54
68648;SHT31;55632;51.962;16.116;2023-01-30T19:13:03;3.90;89.73
68648;SHT31;55632;51.962;16.116;2023-01-30T19:18:25;3.88;89.94
68648;SHT31;55632;51.962;16.116;2023-01-30T19:23:27;3.88;90.04
68648;SHT31;55632;51.962;16.116;2023-01-30T19:28:29;3.86;90.15
68648;SHT31;55632;51.962;16.116;2023-01-30T19:33:30;3.85;90.27
68648;SHT31;55632;51.962;16.116;2023-01-30T19:38:33;3.86;90.38
68648;SHT31;55632;51.962;16.116;2023-01-30T19:43:35;3.82;90.54
68648;SHT31;55632;51.962;16.116;2023-01-30T19:48:38;3.81;90.53
68648;SHT31;55632;51.962;16.116;2023-01-30T19:53:40;3.78;90.50
68648;SHT31;55632;51.962;16.116;2023-01-30T19:58:41;3.68;90.67
68648;SHT31;55632;51.962;16.116;2023-01-30T20:03:43;3.67;90.81
68648;SHT31;55632;51.962;16.116;2023-01-30T20:08:44;3.65;90.92
68648;SHT31;55632;51.962;16.116;2023-01-30T20:13:45;3.65;91.10
68648;SHT31;55632;51.962;16.116;2023-01-30T20:18:47;3.67;91.30
68648;SHT31;55632;51.962;16.116;2023-01-30T20:23:48;3.67;91.19
68648;SHT31;55632;51.962;16.116;2023-01-30T20:28:49;3.67;91.13
68648;SHT31;55632;51.962;16.116;2023-01-30T20:33:51;3.65;91.31
68648;SHT31;55632;51.962;16.116;2023-01-30T20:38:57;3.65;91.43
68648;SHT31;55632;51.962;16.116;2023-01-30T20:44:02;3.68;91.50
68648;SHT31;55632;51.962;16.116;2023-01-30T20:49:03;3.72;91.58
68648;SHT31;55632;51.962;16.116;2023-01-30T20:54:07;3.74;91.62
68648;SHT31;55632;51.962;16.116;2023-01-30T20:59:10;3.81;91.62
68648;SHT31;55632;51.962;16.116;2023-01-30T21:04:15;3.86;91.56
68648;SHT31;55632;51.962;16.116;2023-01-30T21:09:21;3.90;91.48
68648;SHT31;55632;51.962;16.116;2023-01-30T21:14:22;3.96;91.42
68648;SHT31;55632;51.962;16.116;2023-01-30T21:19:23;3.97;91.30
68648;SHT31;55632;51.962;16.116;2023-01-30T21:24:27;4.00;91.18
68648;SHT31;55632;51.962;16.116;2023-01-30T21:29:28;4.05;91.04
68648;SHT31;55632;51.962;16.116;2023-01-30T21:34:29;4.09;90.87
68648;SHT31;55632;51.962;16.116;2023-01-30T21:39:30;4.11;90.66
68648;SHT31;55632;51.962;16.116;2023-01-30T21:44:49;4.18;90.26
68648;SHT31;55632;51.962;16.116;2023-01-30T21:49:52;4.23;89.90
68648;SHT31;55632;51.962;16.116;2023-01-30T21:54:54;4.24;89.50
68648;SHT31;55632;51.962;16.116;2023-01-30T21:59:56;4.25;89.13
68648;SHT31;55632;51.962;16.116;2023-01-30T22:04:56;4.27;88.89
68648;SHT31;55632;51.962;16.116;2023-01-30T22:09:57;4.29;88.75
68648;SHT31;55632;51.962;16.116;2023-01-30T22:15:01;4.29;88.44
68648;SHT31;55632;51.962;16.116;2023-01-30T22:20:01;4.29;88.31
68648;SHT31;55632;51.962;16.116;2023-01-30T22:25:02;4.27;87.67
68648;SHT31;55632;51.962;16.116;2023-01-30T22:30:04;4.29;86.83
68648;SHT31;55632;51.962;16.116;2023-01-30T22:35:05;4.31;86.01
68648;SHT31;55632;51.962;16.116;2023-01-30T22:40:07;4.33;85.51
68648;SHT31;55632;51.962;16.116;2023-01-30T22:45:08;4.30;85.10
68648;SHT31;55632;51.962;16.116;2023-01-30T22:50:10;4.34;84.74
68648;SHT31;55632;51.962;16.116;2023-01-30T22:55:10;4.36;84.61
68648;SHT31;55632;51.962;16.116;2023-01-30T23:00:11;4.30;84.51
68648;SHT31;55632;51.962;16.116;2023-01-30T23:05:12;4.24;84.21
68648;SHT31;55632;51.962;16.116;2023-01-30T23:10:13;4.20;83.83
68648;SHT31;55632;51.962;16.116;2023-01-30T23:15:14;4.18;83.27
68648;SHT31;55632;51.962;16.116;2023-01-30T23:20:18;4.18;82.26
68648;SHT31;55632;51.962;16.116;2023-01-30T23:25:21;4.21;82.32
68648;SHT31;55632;51.962;16.116;2023-01-30T23:30:21;4.18;81.66
68648;SHT31;55632;51.962;16.116;2023-01-30T23:35:22;4.18;82.04
68648;SHT31;55632;51.962;16.116;2023-01-30T23:40:23;4.18;82.01
68648;SHT31;55632;51.962;16.116;2023-01-30T23:45:30;4.16;82.15
68648;SHT31;55632;51.962;16.116;2023-01-30T23:50:30;4.16;81.80
68648;SHT31;55632;51.962;16.116;2023-01-30T23:55:31;4.18;81.10
